sensor_id;sensor_type;location;lat;lon;timestamp;pressure;altitude;pressure_sealevel;temperature;humidity
11017;BME280;54687;50.800;6.772;2024-03-17T00:00:07;99628.09;;;-144.06;61.89
11017;BME280;54687;50.800;6.772;2024-03-17T00:02:39;99604.78;;;-144.06;61.80
11017;BME280;54687;50.800;6.772;2024-03-17T00:05:07;99606.88;;;-144.06;61.95
11017;BME280;54687;50.800;6.772;2024-03-17T00:07:33;99619.59;;;-144.06;61.91
11017;BME280;54687;50.800;6.772;2024-03-17T00:09:59;99632.31;;;-144.06;61.95
11017;BME280;54687;50.800;6.772;2024-03-17T00:12:26;99611.13;;;-144.06;61.88
11017;BME280;54687;50.800;6.772;2024-03-17T00:14:51;99623.84;;;-144.06;61.73
11017;BME280;54687;50.800;6.772;2024-03-17T00:17:18;99640.81;;;-144.06;62.18
11017;BME280;54687;50.800;6.772;2024-03-17T00:19:46;99543.28;;;-144.06;62.12
11017;BME280;54687;50.800;6.772;2024-03-17T00:22:14;99619.59;;;-144.06;62.25
11017;BME280;54687;50.800;6.772;2024-03-17T00:24:40;99606.88;;;-144.06;62.00
11017;BME280;54687;50.800;6.772;2024-03-17T00:27:06;99636.56;;;-144.06;61.99
11017;BME280;54687;50.800;6.772;2024-03-17T00:29:32;99619.59;;;-144.06;61.80
11017;BME280;54687;50.800;6.772;2024-03-17T00:31:59;99630.22;;;-144.06;61.63
11017;BME280;54687;50.800;6.772;2024-03-17T00:34:24;99625.97;;;-144.06;61.60
11017;BME280;54687;50.800;6.772;2024-03-17T00:36:51;99598.41;;;-144.06;61.73
11017;BME280;54687;50.800;6.772;2024-03-17T00:39:18;99649.28;;;-144.06;61.99
11017;BME280;54687;50.800;6.772;2024-03-17T00:41:45;99632.31;;;-144.06;62.01
11017;BME280;54687;50.800;6.772;2024-03-17T00:44:10;99640.81;;;-144.06;61.75
11017;BME280;54687;50.800;6.772;2024-03-17T00:46:37;99649.28;;;-144.06;61.98
11017;BME280;54687;50.800;6.772;2024-03-17T00:49:03;99592.06;;;-144.06;61.92
11017;BME280;54687;50.800;6.772;2024-03-17T00:51:31;99645.03;;;-144.06;61.53
11017;BME280;54687;50.800;6.772;2024-03-17T00:53:57;99657.75;;;-144.06;61.83
11017;BME280;54687;50.800;6.772;2024-03-17T00:56:25;99657.75;;;-144.06;61.85
11017;BME280;54687;50.800;6.772;2024-03-17T00:58:51;99662.00;;;-144.06;61.75
11017;BME280;54687;50.800;6.772;2024-03-17T01:01:18;99691.69;;;-144.06;61.78
11017;BME280;54687;50.800;6.772;2024-03-17T01:03:44;99666.25;;;-144.06;61.71
11017;BME280;54687;50.800;6.772;2024-03-17T01:06:11;99668.38;;;-144.06;61.73
11017;BME280;54687;50.800;6.772;2024-03-17T01:08:37;99636.56;;;-144.06;61.85
11017;BME280;54687;50.800;6.772;2024-03-17T01:11:03;99678.97;;;-144.06;61.77
11017;BME280;54687;50.800;6.772;2024-03-17T01:13:35;99678.97;;;-144.06;62.29
11017;BME280;54687;50.800;6.772;2024-03-17T01:16:06;99666.25;;;-144.06;62.42
11017;BME280;54687;50.800;6.772;2024-03-17T01:18:34;99700.16;;;-144.06;62.49
11017;BME280;54687;50.800;6.772;2024-03-17T01:21:04;99670.50;;;-144.06;61.99
11017;BME280;54687;50.800;6.772;2024-03-17T01:23:33;99700.16;;;-144.06;62.03
11017;BME280;54687;50.800;6.772;2024-03-17T01:26:01;99664.13;;;-144.06;62.07
11017;BME280;54687;50.800;6.772;2024-03-17T01:28:27;99725.59;;;-144.06;62.52
11017;BME280;54687;50.800;6.772;2024-03-17T01:30:55;99715.00;;;-144.06;62.27
11017;BME280;54687;50.800;6.772;2024-03-17T01:33:21;99704.41;;;-144.06;62.45
11017;BME280;54687;50.800;6.772;2024-03-17T01:35:47;99687.44;;;-144.06;62.54
11017;BME280;54687;50.800;6.772;2024-03-17T01:38:13;99734.09;;;-144.06;62.48
11017;BME280;54687;50.800;6.772;2024-03-17T01:40:40;99683.22;;;-144.06;62.48
11017;BME280;54687;50.800;6.772;2024-03-17T01:43:09;99708.66;;;-144.06;62.94
11017;BME280;54687;50.800;6.772;2024-03-17T01:45:36;99706.53;;;-144.06;62.54
11017;BME280;54687;50.800;6.772;2024-03-17T01:48:08;99689.56;;;-144.06;62.14
11017;BME280;54687;50.800;6.772;2024-03-17T01:50:38;99702.28;;;-144.06;62.27
11017;BME280;54687;50.800;6.772;2024-03-17T01:53:05;99704.41;;;-144.06;62.53
11017;BME280;54687;50.800;6.772;2024-03-17T01:55:32;99725.59;;;-144.06;62.31
11017;BME280;54687;50.800;6.772;2024-03-17T01:57:59;99755.28;;;-144.06;62.22
11017;BME280;54687;50.800;6.772;2024-03-17T02:00:25;99717.13;;;-144.06;62.15
11017;BME280;54687;50.800;6.772;2024-03-17T02:02:52;99729.84;;;-144.06;62.81
11017;BME280;54687;50.800;6.772;2024-03-17T02:05:20;99727.72;;;-144.06;62.54
11017;BME280;54687;50.800;6.772;2024-03-17T02:07:46;99731.97;;;-144.06;62.34
11017;BME280;54687;50.800;6.772;2024-03-17T02:10:13;99689.56;;;-144.06;62.18
11017;BME280;54687;50.800;6.772;2024-03-17T02:12:42;99729.84;;;-144.06;62.24
11017;BME280;54687;50.800;6.772;2024-03-17T02:15:09;99734.09;;;-144.06;62.05
11017;BME280;54687;50.800;6.772;2024-03-17T02:17:35;99712.88;;;-144.06;62.37
11017;BME280;54687;50.800;6.772;2024-03-17T02:20:03;99759.53;;;-144.06;62.27
11017;BME280;54687;50.800;6.772;2024-03-17T02:22:34;99736.19;;;-144.06;62.51
11017;BME280;54687;50.800;6.772;2024-03-17T02:25:01;99725.59;;;-144.06;62.66
11017;BME280;54687;50.800;6.772;2024-03-17T02:27:27;99751.03;;;-144.06;62.69
11017;BME280;54687;50.800;6.772;2024-03-17T02:29:54;99742.56;;;-144.06;62.19
11017;BME280;54687;50.800;6.772;2024-03-17T02:32:20;99797.69;;;-144.06;61.83
11017;BME280;54687;50.800;6.772;2024-03-17T02:34:48;99759.53;;;-144.06;62.10
11017;BME280;54687;50.800;6.772;2024-03-17T02:37:14;99746.81;;;-144.06;61.93
11017;BME280;54687;50.800;6.772;2024-03-17T02:39:42;99746.81;;;-144.06;62.02
11017;BME280;54687;50.800;6.772;2024-03-17T02:42:10;99793.44;;;-144.06;62.37
11017;BME280;54687;50.800;6.772;2024-03-17T02:44:38;99759.53;;;-144.06;61.96
11017;BME280;54687;50.800;6.772;2024-03-17T02:47:05;99748.94;;;-144.06;62.08
11017;BME280;54687;50.800;6.772;2024-03-17T02:49:34;99784.97;;;-144.06;61.96
11017;BME280;54687;50.800;6.772;2024-03-17T02:52:03;99791.31;;;-144.06;62.19
11017;BME280;54687;50.800;6.772;2024-03-17T02:54:30;99763.75;;;-144.06;62.22
11017;BME280;54687;50.800;6.772;2024-03-17T02:56:58;99787.09;;;-144.06;62.48
11017;BME280;54687;50.800;6.772;2024-03-17T02:59:25;99776.47;;;-144.06;62.27
11017;BME280;54687;50.800;6.772;2024-03-17T03:01:52;99761.66;;;-144.06;62.38
11017;BME280;54687;50.800;6.772;2024-03-17T03:04:20;99729.84;;;-144.06;62.10
11017;BME280;54687;50.800;6.772;2024-03-17T03:06:47;99598.41;;;-144.06;62.81
11017;BME280;54687;50.800;6.772;2024-03-17T03:09:13;99782.84;;;-144.06;62.77
11017;BME280;54687;50.800;6.772;2024-03-17T03:11:46;99787.09;;;-144.06;62.65
11017;BME280;54687;50.800;6.772;2024-03-17T03:14:14;99746.81;;;-144.06;62.49
11017;BME280;54687;50.800;6.772;2024-03-17T03:16:40;99772.25;;;-144.06;62.76
11017;BME280;54687;50.800;6.772;2024-03-17T03:19:07;99814.66;;;-144.06;62.43
11017;BME280;54687;50.800;6.772;2024-03-17T03:21:33;99751.03;;;-144.06;62.42
11017;BME280;54687;50.800;6.772;2024-03-17T03:24:00;99782.84;;;-144.06;62.66
11017;BME280;54687;50.800;6.772;2024-03-17T03:26:26;99789.19;;;-144.06;62.81
11017;BME280;54687;50.800;6.772;2024-03-17T03:28:53;99793.44;;;-144.06;62.54
11017;BME280;54687;50.800;6.772;2024-03-17T03:31:22;99799.81;;;-144.06;62.81
11017;BME280;54687;50.800;6.772;2024-03-17T03:33:48;99821.00;;;-144.06;62.74
11017;BME280;54687;50.800;6.772;2024-03-17T03:36:15;99791.31;;;-144.06;62.75
11017;BME280;54687;50.800;6.772;2024-03-17T03:38:43;99806.16;;;-144.06;62.61
11017;BME280;54687;50.800;6.772;2024-03-17T03:41:12;99804.03;;;-144.06;62.99
11017;BME280;54687;50.800;6.772;2024-03-17T03:43:39;99731.97;;;-144.06;62.79
11017;BME280;54687;50.800;6.772;2024-03-17T03:46:07;99797.69;;;-144.06;62.80
11017;BME280;54687;50.800;6.772;2024-03-17T03:48:35;99700.16;;;-144.06;62.91
11017;BME280;54687;50.800;6.772;2024-03-17T03:51:05;99814.66;;;-144.06;62.56
11017;BME280;54687;50.800;6.772;2024-03-17T03:53:32;99670.50;;;-144.06;62.48
11017;BME280;54687;50.800;6.772;2024-03-17T03:55:59;99814.66;;;-144.06;62.72
11017;BME280;54687;50.800;6.772;2024-03-17T03:58:26;99821.00;;;-144.06;62.42
11017;BME280;54687;50.800;6.772;2024-03-17T04:00:54;99763.75;;;-144.06;62.25
11017;BME280;54687;50.800;6.772;2024-03-17T04:03:20;99801.94;;;-144.06;62.25
11017;BME280;54687;50.800;6.772;2024-03-17T04:05:48;99816.75;;;-144.06;62.20
11017;BME280;54687;50.800;6.772;2024-03-17T04:08:15;99831.59;;;-144.06;62.08
11017;BME280;54687;50.800;6.772;2024-03-17T04:10:43;99793.44;;;-144.06;62.22
11017;BME280;54687;50.800;6.772;2024-03-17T04:13:10;99789.19;;;-144.06;62.28
11017;BME280;54687;50.800;6.772;2024-03-17T04:15:37;99759.53;;;-144.06;62.11
11017;BME280;54687;50.800;6.772;2024-03-17T04:18:04;99797.69;;;-144.06;62.02
11017;BME280;54687;50.800;6.772;2024-03-17T04:20:31;99755.28;;;-144.06;61.83
11017;BME280;54687;50.800;6.772;2024-03-17T04:22:59;99734.09;;;-144.06;61.73
11017;BME280;54687;50.800;6.772;2024-03-17T04:25:26;99768.00;;;-144.06;61.66
11017;BME280;54687;50.800;6.772;2024-03-17T04:27:53;99759.53;;;-144.06;61.73
11017;BME280;54687;50.800;6.772;2024-03-17T04:30:19;99780.72;;;-144.06;61.44
11017;BME280;54687;50.800;6.772;2024-03-17T04:32:47;99742.56;;;-144.06;61.34
11017;BME280;54687;50.800;6.772;2024-03-17T04:35:13;99776.47;;;-144.06;61.13
11017;BME280;54687;50.800;6.772;2024-03-17T04:37:40;99801.94;;;-144.06;60.99
11017;BME280;54687;50.800;6.772;2024-03-17T04:40:09;99746.81;;;-144.06;60.90
11017;BME280;54687;50.800;6.772;2024-03-17T04:42:36;99727.72;;;-144.06;60.88
11017;BME280;54687;50.800;6.772;2024-03-17T04:45:06;99738.31;;;-144.06;60.87
11017;BME280;54687;50.800;6.772;2024-03-17T04:47:35;99710.75;;;-144.06;60.48
11017;BME280;54687;50.800;6.772;2024-03-17T04:50:02;99784.97;;;-144.06;60.48
11017;BME280;54687;50.800;6.772;2024-03-17T04:52:29;99793.44;;;-144.06;60.52
11017;BME280;54687;50.800;6.772;2024-03-17T04:54:56;99755.28;;;-144.06;60.60
11017;BME280;54687;50.800;6.772;2024-03-17T04:57:24;99738.31;;;-144.06;60.45
11017;BME280;54687;50.800;6.772;2024-03-17T04:59:51;99770.13;;;-144.06;60.35
11017;BME280;54687;50.800;6.772;2024-03-17T05:02:17;99759.53;;;-144.06;60.47
11017;BME280;54687;50.800;6.772;2024-03-17T05:04:44;99765.88;;;-144.06;60.41
11017;BME280;54687;50.800;6.772;2024-03-17T05:07:10;99725.59;;;-144.06;60.47
11017;BME280;54687;50.800;6.772;2024-03-17T05:09:37;99746.81;;;-144.06;60.48
11017;BME280;54687;50.800;6.772;2024-03-17T05:12:04;99734.09;;;-144.06;60.44
11017;BME280;54687;50.800;6.772;2024-03-17T05:14:32;99755.28;;;-144.06;60.40
11017;BME280;54687;50.800;6.772;2024-03-17T05:16:59;99784.97;;;-144.06;60.45
11017;BME280;54687;50.800;6.772;2024-03-17T05:19:25;99793.44;;;-144.06;60.38
11017;BME280;54687;50.800;6.772;2024-03-17T05:21:52;99700.16;;;-144.06;60.46
11017;BME280;54687;50.800;6.772;2024-03-17T05:24:19;99734.09;;;-144.06;60.32
11017;BME280;54687;50.800;6.772;2024-03-17T05:26:45;99738.31;;;-144.06;60.18
11017;BME280;54687;50.800;6.772;2024-03-17T05:29:12;99759.53;;;-144.06;60.29
11017;BME280;54687;50.800;6.772;2024-03-17T05:31:40;99751.03;;;-144.06;60.33
11017;BME280;54687;50.800;6.772;2024-03-17T05:34:08;99751.03;;;-144.06;60.24
11017;BME280;54687;50.800;6.772;2024-03-17T05:36:35;99814.66;;;-144.06;60.66
11017;BME280;54687;50.800;6.772;2024-03-17T05:39:02;99791.31;;;-144.06;60.96
11017;BME280;54687;50.800;6.772;2024-03-17T05:41:29;99776.47;;;-144.06;61.00
11017;BME280;54687;50.800;6.772;2024-03-17T05:43:56;99780.72;;;-144.06;60.58
11017;BME280;54687;50.800;6.772;2024-03-17T05:46:24;99721.38;;;-144.06;60.67
11017;BME280;54687;50.800;6.772;2024-03-17T05:48:53;99759.53;;;-144.06;60.60
11017;BME280;54687;50.800;6.772;2024-03-17T05:51:21;99797.69;;;-144.06;60.85
11017;BME280;54687;50.800;6.772;2024-03-17T05:53:47;99801.94;;;-144.06;60.75
11017;BME280;54687;50.800;6.772;2024-03-17T05:56:14;99825.25;;;-144.06;60.82
11017;BME280;54687;50.800;6.772;2024-03-17T05:58:42;99776.47;;;-144.06;60.64
11017;BME280;54687;50.800;6.772;2024-03-17T06:01:09;99842.19;;;-144.06;60.65
11017;BME280;54687;50.800;6.772;2024-03-17T06:03:37;99816.75;;;-144.06;60.50
11017;BME280;54687;50.800;6.772;2024-03-17T06:06:06;99776.47;;;-144.06;60.75
11017;BME280;54687;50.800;6.772;2024-03-17T06:08:35;99789.19;;;-144.06;60.57
11017;BME280;54687;50.800;6.772;2024-03-17T06:11:01;99668.38;;;-144.06;60.70
11017;BME280;54687;50.800;6.772;2024-03-17T06:13:28;99835.84;;;-144.06;60.59
11017;BME280;54687;50.800;6.772;2024-03-17T06:15:55;99787.09;;;-144.06;60.54
11017;BME280;54687;50.800;6.772;2024-03-17T06:18:26;99780.72;;;-144.06;60.50
11017;BME280;54687;50.800;6.772;2024-03-17T06:20:52;99837.97;;;-144.06;60.46
11017;BME280;54687;50.800;6.772;2024-03-17T06:23:20;99763.75;;;-144.06;60.33
11017;BME280;54687;50.800;6.772;2024-03-17T06:25:47;99734.09;;;-144.06;60.31
11017;BME280;54687;50.800;6.772;2024-03-17T06:28:16;99763.75;;;-144.06;59.97
11017;BME280;54687;50.800;6.772;2024-03-17T06:30:44;99789.19;;;-144.06;60.04
11017;BME280;54687;50.800;6.772;2024-03-17T06:33:13;99742.56;;;-144.06;59.88
11017;BME280;54687;50.800;6.772;2024-03-17T06:35:40;99746.81;;;-144.06;59.82
11017;BME280;54687;50.800;6.772;2024-03-17T06:38:06;99742.56;;;-144.06;59.11
11017;BME280;54687;50.800;6.772;2024-03-17T06:40:36;99742.56;;;-144.06;59.43
11017;BME280;54687;50.800;6.772;2024-03-17T06:43:04;99693.81;;;-144.06;59.17
11017;BME280;54687;50.800;6.772;2024-03-17T06:45:30;99736.19;;;-144.06;59.13
11017;BME280;54687;50.800;6.772;2024-03-17T06:47:57;99704.41;;;-144.06;59.19
11017;BME280;54687;50.800;6.772;2024-03-17T06:50:24;99698.03;;;-144.06;59.23
11017;BME280;54687;50.800;6.772;2024-03-17T06:52:50;99689.56;;;-144.06;58.78
11017;BME280;54687;50.800;6.772;2024-03-17T06:55:18;99746.81;;;-144.06;58.63
11017;BME280;54687;50.800;6.772;2024-03-17T06:57:48;99734.09;;;-144.06;58.89
11017;BME280;54687;50.800;6.772;2024-03-17T07:00:15;99717.13;;;-144.06;59.01
11017;BME280;54687;50.800;6.772;2024-03-17T07:02:43;99649.28;;;-144.06;58.79
11017;BME280;54687;50.800;6.772;2024-03-17T07:05:11;99689.56;;;-144.06;58.86
11017;BME280;54687;50.800;6.772;2024-03-17T07:07:40;99708.66;;;-144.06;58.48
11017;BME280;54687;50.800;6.772;2024-03-17T07:10:07;99691.69;;;-144.06;58.41
11017;BME280;54687;50.800;6.772;2024-03-17T07:12:34;99649.28;;;-144.06;58.54
11017;BME280;54687;50.800;6.772;2024-03-17T07:15:02;99640.81;;;-144.06;58.20
11017;BME280;54687;50.800;6.772;2024-03-17T07:17:29;99649.28;;;-144.06;57.95
11017;BME280;54687;50.800;6.772;2024-03-17T07:19:55;99606.88;;;-144.06;58.24
11017;BME280;54687;50.800;6.772;2024-03-17T07:22:22;99617.50;;;-144.06;57.73
11017;BME280;54687;50.800;6.772;2024-03-17T07:24:51;99606.88;;;-144.06;57.65
11017;BME280;54687;50.800;6.772;2024-03-17T07:27:21;99615.38;;;-144.06;57.46
11017;BME280;54687;50.800;6.772;2024-03-17T07:29:48;99611.13;;;-144.06;57.08
11017;BME280;54687;50.800;6.772;2024-03-17T07:32:16;99592.06;;;-144.06;56.88
11017;BME280;54687;50.800;6.772;2024-03-17T07:34:43;99585.69;;;-144.06;56.66
11017;BME280;54687;50.800;6.772;2024-03-17T07:37:09;99598.41;;;-144.06;56.47
11017;BME280;54687;50.800;6.772;2024-03-17T07:39:36;99564.50;;;-144.06;56.56
11017;BME280;54687;50.800;6.772;2024-03-17T07:42:03;99547.53;;;-144.06;56.44
11017;BME280;54687;50.800;6.772;2024-03-17T07:44:29;99528.47;;;-144.06;55.73
11017;BME280;54687;50.800;6.772;2024-03-17T07:46:59;99511.50;;;-144.06;55.94
11017;BME280;54687;50.800;6.772;2024-03-17T07:49:27;99473.34;;;-144.06;55.73
11017;BME280;54687;50.800;6.772;2024-03-17T07:51:54;99481.81;;;-144.06;55.67
11017;BME280;54687;50.800;6.772;2024-03-17T07:54:23;99462.75;;;-144.06;55.49
11017;BME280;54687;50.800;6.772;2024-03-17T07:56:49;99407.63;;;-144.06;55.32
11017;BME280;54687;50.800;6.772;2024-03-17T07:59:16;99439.44;;;-144.06;55.28
11017;BME280;54687;50.800;6.772;2024-03-17T08:01:43;99390.69;;;-144.06;55.28
11017;BME280;54687;50.800;6.772;2024-03-17T08:04:10;99424.59;;;-144.06;54.30
11017;BME280;54687;50.800;6.772;2024-03-17T08:06:38;99424.59;;;-144.06;53.94
11017;BME280;54687;50.800;6.772;2024-03-17T08:09:06;99386.44;;;-144.06;54.54
11017;BME280;54687;50.800;6.772;2024-03-17T08:11:33;99664.13;;;-144.06;54.10
11017;BME280;54687;50.800;6.772;2024-03-17T08:14:00;99390.69;;;-144.06;53.61
11017;BME280;54687;50.800;6.772;2024-03-17T08:16:27;99335.56;;;-144.06;53.60
11017;BME280;54687;50.800;6.772;2024-03-17T08:18:54;99344.03;;;-144.06;53.60
11017;BME280;54687;50.800;6.772;2024-03-17T08:21:21;99384.31;;;-144.06;53.64
11017;BME280;54687;50.800;6.772;2024-03-17T08:23:49;99314.38;;;-144.06;53.49
11017;BME280;54687;50.800;6.772;2024-03-17T08:26:16;99310.13;;;-144.06;53.52
11017;BME280;54687;50.800;6.772;2024-03-17T08:28:42;99322.84;;;-144.06;53.29
11017;BME280;54687;50.800;6.772;2024-03-17T08:31:10;99295.28;;;-144.06;53.23
11017;BME280;54687;50.800;6.772;2024-03-17T08:33:36;99303.78;;;-144.06;53.03
11017;BME280;54687;50.800;6.772;2024-03-17T08:36:04;99263.50;;;-144.06;52.51
11017;BME280;54687;50.800;6.772;2024-03-17T08:38:33;99216.84;;;-144.06;52.28
11017;BME280;54687;50.800;6.772;2024-03-17T08:41:04;99202.03;;;-144.06;51.58
11017;BME280;54687;50.800;6.772;2024-03-17T08:43:31;99208.38;;;-144.06;51.99
11017;BME280;54687;50.800;6.772;2024-03-17T08:45:59;99204.16;;;-144.06;51.27
11017;BME280;54687;50.800;6.772;2024-03-17T08:48:28;99132.06;;;-144.06;51.40
11017;BME280;54687;50.800;6.772;2024-03-17T08:50:56;99146.91;;;-144.06;51.03
11017;BME280;54687;50.800;6.772;2024-03-17T08:53:24;99146.91;;;-144.06;50.66
11017;BME280;54687;50.800;6.772;2024-03-17T08:55:50;99102.41;;;-144.06;49.96
11017;BME280;54687;50.800;6.772;2024-03-17T08:58:19;99127.84;;;-144.06;49.21
11017;BME280;54687;50.800;6.772;2024-03-17T09:00:45;99115.13;;;-144.06;49.76
11017;BME280;54687;50.800;6.772;2024-03-17T09:03:12;99081.22;;;-144.06;49.31
11017;BME280;54687;50.800;6.772;2024-03-17T09:05:41;99009.16;;;-144.06;48.85
11017;BME280;54687;50.800;6.772;2024-03-17T09:08:15;99098.16;;;-144.06;49.19
11017;BME280;54687;50.800;6.772;2024-03-17T09:10:42;99013.38;;;-144.06;48.92
11017;BME280;54687;50.800;6.772;2024-03-17T09:13:12;99013.38;;;-144.06;48.88
11017;BME280;54687;50.800;6.772;2024-03-17T09:15:41;99030.34;;;-144.06;48.19
11017;BME280;54687;50.800;6.772;2024-03-17T09:18:07;98987.94;;;-144.06;48.34
11017;BME280;54687;50.800;6.772;2024-03-17T09:20:34;98971.00;;;-144.06;48.86
11017;BME280;54687;50.800;6.772;2024-03-17T09:23:00;98949.81;;;-144.06;48.06
11017;BME280;54687;50.800;6.772;2024-03-17T09:25:27;98949.81;;;-144.06;48.01
11017;BME280;54687;50.800;6.772;2024-03-17T09:27:53;98954.03;;;-144.06;47.88
11017;BME280;54687;50.800;6.772;2024-03-17T09:30:20;98907.41;;;-144.06;47.50
11017;BME280;54687;50.800;6.772;2024-03-17T09:32:49;98884.09;;;-144.06;46.67
11017;BME280;54687;50.800;6.772;2024-03-17T09:35:16;98886.22;;;-144.06;46.75
11017;BME280;54687;50.800;6.772;2024-03-17T09:37:42;98839.59;;;-144.06;46.80
11017;BME280;54687;50.800;6.772;2024-03-17T09:40:13;98858.66;;;-144.06;46.75
11017;BME280;54687;50.800;6.772;2024-03-17T09:42:40;98873.50;;;-144.06;46.08
11017;BME280;54687;50.800;6.772;2024-03-17T09:45:08;98886.22;;;-144.06;45.99
11017;BME280;54687;50.800;6.772;2024-03-17T09:47:36;98848.06;;;-144.06;46.76
11017;BME280;54687;50.800;6.772;2024-03-17T09:50:05;98799.31;;;-144.06;47.07
11017;BME280;54687;50.800;6.772;2024-03-17T09:52:39;98856.53;;;-144.06;46.78
11017;BME280;54687;50.800;6.772;2024-03-17T09:55:09;98805.69;;;-144.06;46.74
11017;BME280;54687;50.800;6.772;2024-03-17T09:57:39;98786.59;;;-144.06;46.36
11017;BME280;54687;50.800;6.772;2024-03-17T10:00:12;98822.63;;;-144.06;46.36
11017;BME280;54687;50.800;6.772;2024-03-17T10:02:43;98788.72;;;-144.06;46.29
11017;BME280;54687;50.800;6.772;2024-03-17T10:05:23;98761.19;;;-144.06;46.05
11017;BME280;54687;50.800;6.772;2024-03-17T10:07:51;98776.00;;;-144.06;45.45
11017;BME280;54687;50.800;6.772;2024-03-17T10:10:20;98754.81;;;-144.06;46.27
11017;BME280;54687;50.800;6.772;2024-03-17T10:12:51;98763.28;;;-144.06;45.35
11017;BME280;54687;50.800;6.772;2024-03-17T10:15:18;98746.34;;;-144.06;45.38
11017;BME280;54687;50.800;6.772;2024-03-17T10:17:45;98716.66;;;-144.06;45.63
11017;BME280;54687;50.800;6.772;2024-03-17T10:20:14;98720.91;;;-144.06;45.19
11017;BME280;54687;50.800;6.772;2024-03-17T10:23:02;98737.88;;;-144.06;44.74
11017;BME280;54687;50.800;6.772;2024-03-17T10:25:30;98699.72;;;-144.06;45.50
11017;BME280;54687;50.800;6.772;2024-03-17T10:27:57;98759.06;;;-144.06;44.91
11017;BME280;54687;50.800;6.772;2024-03-17T10:30:24;98739.97;;;-144.06;45.57
11017;BME280;54687;50.800;6.772;2024-03-17T10:32:56;98733.63;;;-144.06;45.51
11017;BME280;54687;50.800;6.772;2024-03-17T10:35:28;98714.56;;;-144.06;45.68
11017;BME280;54687;50.800;6.772;2024-03-17T10:37:56;98716.66;;;-144.06;45.12
11017;BME280;54687;50.800;6.772;2024-03-17T10:40:26;98678.53;;;-144.06;45.05
11017;BME280;54687;50.800;6.772;2024-03-17T10:42:53;98712.44;;;-144.06;44.79
11017;BME280;54687;50.800;6.772;2024-03-17T10:45:19;98725.16;;;-144.06;45.12
11017;BME280;54687;50.800;6.772;2024-03-17T10:47:48;98682.75;;;-144.06;45.54
11017;BME280;54687;50.800;6.772;2024-03-17T10:50:18;98716.66;;;-144.06;45.55
11017;BME280;54687;50.800;6.772;2024-03-17T10:52:46;98650.97;;;-144.06;45.61
11017;BME280;54687;50.800;6.772;2024-03-17T10:55:23;98644.63;;;-144.06;45.60
11017;BME280;54687;50.800;6.772;2024-03-17T10:57:52;98661.56;;;-144.06;45.11
11017;BME280;54687;50.800;6.772;2024-03-17T11:00:21;98674.28;;;-144.06;44.39
11017;BME280;54687;50.800;6.772;2024-03-17T11:02:49;98655.22;;;-144.06;44.85
11017;BME280;54687;50.800;6.772;2024-03-17T11:05:20;98659.44;;;-144.06;44.84
11017;BME280;54687;50.800;6.772;2024-03-17T11:07:49;98657.34;;;-144.06;44.54
11017;BME280;54687;50.800;6.772;2024-03-17T11:10:20;98619.19;;;-144.06;44.93
11017;BME280;54687;50.800;6.772;2024-03-17T11:12:48;98606.47;;;-144.06;43.62
11017;BME280;54687;50.800;6.772;2024-03-17T11:15:38;98576.78;;;-144.06;44.29
11017;BME280;54687;50.800;6.772;2024-03-17T11:21:22;98589.50;;;-144.06;44.17
11017;BME280;54687;50.800;6.772;2024-03-17T11:23:59;98538.66;;;-144.06;44.39
11017;BME280;54687;50.800;6.772;2024-03-17T11:26:33;98581.03;;;-144.06;43.66
11017;BME280;54687;50.800;6.772;2024-03-17T11:29:00;98606.47;;;-144.06;44.34
11017;BME280;54687;50.800;6.772;2024-03-17T11:31:39;98581.03;;;-144.06;44.78
11017;BME280;54687;50.800;6.772;2024-03-17T11:34:27;98515.34;;;-144.06;44.50
11017;BME280;54687;50.800;6.772;2024-03-17T11:36:55;98532.28;;;-144.06;44.22
11017;BME280;54687;50.800;6.772;2024-03-17T11:39:54;98521.69;;;-144.06;44.66
11017;BME280;54687;50.800;6.772;2024-03-17T11:42:25;98574.69;;;-144.06;43.72
11017;BME280;54687;50.800;6.772;2024-03-17T11:44:59;98523.81;;;-144.06;44.32
11017;BME280;54687;50.800;6.772;2024-03-17T11:47:38;98508.97;;;-144.06;44.17
11017;BME280;54687;50.800;6.772;2024-03-17T11:50:05;98487.78;;;-144.06;43.99
11017;BME280;54687;50.800;6.772;2024-03-17T11:52:33;98468.72;;;-144.06;44.03
11017;BME280;54687;50.800;6.772;2024-03-17T11:54:58;98430.56;;;-144.06;43.98
11017;BME280;54687;50.800;6.772;2024-03-17T11:57:26;98386.06;;;-144.06;43.15
11017;BME280;54687;50.800;6.772;2024-03-17T11:59:55;98373.34;;;-144.06;42.86
11017;BME280;54687;50.800;6.772;2024-03-17T12:02:23;98386.06;;;-144.06;43.54
11017;BME280;54687;50.800;6.772;2024-03-17T12:04:53;98386.06;;;-144.06;41.96
11017;BME280;54687;50.800;6.772;2024-03-17T12:07:21;98347.94;;;-144.06;42.12
11017;BME280;54687;50.800;6.772;2024-03-17T12:09:49;98352.16;;;-144.06;41.47
11017;BME280;54687;50.800;6.772;2024-03-17T12:12:17;98254.69;;;-144.06;42.61
11017;BME280;54687;50.800;6.772;2024-03-17T12:14:45;98339.44;;;-144.06;42.78
11017;BME280;54687;50.800;6.772;2024-03-17T12:17:13;98330.97;;;-144.06;41.57
11017;BME280;54687;50.800;6.772;2024-03-17T12:19:39;98301.31;;;-144.06;42.35
11017;BME280;54687;50.800;6.772;2024-03-17T12:22:15;98314.03;;;-144.06;41.47
11017;BME280;54687;50.800;6.772;2024-03-17T12:24:43;98350.03;;;-144.06;41.00
11017;BME280;54687;50.800;6.772;2024-03-17T12:27:16;98326.75;;;-144.06;41.37
11017;BME280;54687;50.800;6.772;2024-03-17T12:29:43;98314.03;;;-144.06;41.38
11017;BME280;54687;50.800;6.772;2024-03-17T12:32:13;98352.16;;;-144.06;41.98
11017;BME280;54687;50.800;6.772;2024-03-17T12:34:40;98375.47;;;-144.06;41.35
11017;BME280;54687;50.800;6.772;2024-03-17T12:37:15;98326.75;;;-144.06;42.16
11017;BME280;54687;50.800;6.772;2024-03-17T12:39:41;98339.44;;;-144.06;40.96
11017;BME280;54687;50.800;6.772;2024-03-17T12:42:09;98284.34;;;-144.06;41.99
11017;BME280;54687;50.800;6.772;2024-03-17T12:44:36;98271.66;;;-144.06;41.16
11017;BME280;54687;50.800;6.772;2024-03-17T12:47:08;98352.16;;;-144.06;41.68